createdAt,value
2019-01-13T00:01:57.921Z,4.18
2019-01-13T00:04:25.538Z,4.21
2019-01-13T00:06:53.515Z,4.21
2019-01-13T00:09:21.479Z,4.23
2019-01-13T00:11:49.448Z,4.18
2019-01-13T00:14:17.421Z,4.26
2019-01-13T00:16:45.392Z,4.21
2019-01-13T00:19:13.356Z,4.15
2019-01-13T00:21:41.312Z,4.15
2019-01-13T00:24:09.238Z,4.16
2019-01-13T00:26:37.161Z,4.16
2019-01-13T00:29:04.789Z,4.22
2019-01-13T00:31:32.416Z,4.25
2019-01-13T00:34:00.047Z,4.24
2019-01-13T00:36:28.018Z,4.26
2019-01-13T00:38:55.987Z,4.26
2019-01-13T00:41:23.977Z,4.27
2019-01-13T00:43:51.598Z,4.30
2019-01-13T00:46:19.590Z,4.25
2019-01-13T00:48:47.214Z,4.28
2019-01-13T00:51:15.117Z,4.25
2019-01-13T00:53:43.089Z,4.25
2019-01-13T00:56:10.715Z,4.30
2019-01-13T00:58:38.332Z,4.29
2019-01-13T01:01:06.279Z,4.35
2019-01-13T01:03:34.249Z,4.29
2019-01-13T01:06:02.216Z,4.30
2019-01-13T01:08:30.191Z,4.35
2019-01-13T01:10:57.827Z,4.34
2019-01-13T01:13:25.717Z,4.36
2019-01-13T01:15:53.683Z,4.35
2019-01-13T01:18:21.660Z,4.45
2019-01-13T01:20:49.283Z,4.44
2019-01-13T01:23:16.909Z,4.49
2019-01-13T01:25:44.850Z,4.53
2019-01-13T01:28:12.816Z,4.49
2019-01-13T01:30:40.442Z,4.51
2019-01-13T01:33:08.076Z,4.46
2019-01-13T01:35:35.693Z,4.48
2019-01-13T01:38:03.319Z,4.44
2019-01-13T01:40:30.940Z,4.45
2019-01-13T01:42:58.903Z,4.44
2019-01-13T01:45:26.867Z,4.48
2019-01-13T01:47:54.835Z,4.56
2019-01-13T01:50:22.459Z,4.45
2019-01-13T01:52:50.361Z,4.49
2019-01-13T01:55:18.333Z,4.51
2019-01-13T01:57:45.961Z,4.54
2019-01-13T02:00:13.868Z,4.55
2019-01-13T02:02:41.836Z,4.58
2019-01-13T02:05:09.465Z,4.58
2019-01-13T02:07:37.362Z,4.64
2019-01-13T02:10:05.331Z,4.63
2019-01-13T02:12:33.315Z,4.61
2019-01-13T02:15:00.934Z,4.59
2019-01-13T02:17:28.830Z,4.66
2019-01-13T02:19:56.451Z,4.64
2019-01-13T02:22:24.363Z,4.67
2019-01-13T02:24:52.328Z,4.66
2019-01-13T02:27:19.958Z,4.74
2019-01-13T02:29:47.862Z,4.73
2019-01-13T02:32:15.847Z,4.74
2019-01-13T02:34:43.806Z,4.69
2019-01-13T02:37:11.777Z,4.69
2019-01-13T02:39:39.753Z,4.66
2019-01-13T02:42:07.705Z,4.65
2019-01-13T02:44:35.580Z,4.65
2019-01-13T02:47:03.208Z,4.59
2019-01-13T02:49:30.834Z,4.64
2019-01-13T02:51:58.793Z,4.64
2019-01-13T02:54:26.401Z,4.58
2019-01-13T02:56:54.300Z,4.58
2019-01-13T02:59:22.284Z,4.59
2019-01-13T03:01:49.914Z,4.61
2019-01-13T03:04:17.817Z,4.60
2019-01-13T03:06:45.447Z,4.61
2019-01-13T03:09:13.347Z,4.55
2019-01-13T03:11:40.960Z,4.46
2019-01-13T03:14:08.586Z,4.45
2019-01-13T03:16:36.518Z,4.41
2019-01-13T03:19:04.487Z,4.44
2019-01-13T03:21:32.463Z,4.46
2019-01-13T03:24:00.453Z,4.56
2019-01-13T03:26:28.074Z,4.57
2019-01-13T03:28:55.704Z,4.53
2019-01-13T03:31:23.624Z,4.61
2019-01-13T03:33:51.590Z,4.63
2019-01-13T03:36:19.564Z,4.59
2019-01-13T03:38:47.533Z,4.62
2019-01-13T03:41:15.499Z,4.57
2019-01-13T03:43:43.128Z,4.59
2019-01-13T03:46:10.822Z,4.64
2019-01-13T03:48:38.794Z,4.64
2019-01-13T03:51:06.763Z,4.63
2019-01-13T03:53:34.747Z,4.56
2019-01-13T03:56:02.711Z,4.57
2019-01-13T03:58:30.673Z,4.56
2019-01-13T04:00:58.289Z,4.59
2019-01-13T04:03:26.209Z,4.60
2019-01-13T04:05:53.829Z,4.60
2019-01-13T04:08:21.532Z,4.58
2019-01-13T04:10:49.157Z,4.65
2019-01-13T04:13:17.055Z,4.64
2019-01-13T04:15:45.044Z,4.61
2019-01-13T04:18:12.995Z,4.66
2019-01-13T04:20:40.621Z,4.73
2019-01-13T04:23:08.524Z,4.71
2019-01-13T04:25:36.511Z,4.74
2019-01-13T04:28:04.468Z,4.75
2019-01-13T04:30:32.085Z,4.70
2019-01-13T04:32:59.996Z,4.69
2019-01-13T04:35:27.962Z,4.75
2019-01-13T04:37:55.662Z,4.65
2019-01-13T04:40:23.285Z,4.79
2019-01-13T04:42:50.912Z,4.72
2019-01-13T04:45:18.815Z,4.73
2019-01-13T04:47:46.785Z,4.79
2019-01-13T04:50:14.766Z,4.77
2019-01-13T04:52:42.730Z,4.76
2019-01-13T04:55:10.377Z,4.74
2019-01-13T04:57:38.071Z,4.68
2019-01-13T05:00:06.017Z,4.66
2019-01-13T05:02:33.887Z,4.63
2019-01-13T05:05:01.865Z,4.65
2019-01-13T05:07:29.847Z,4.64
2019-01-13T05:09:57.480Z,4.58
2019-01-13T05:12:25.360Z,4.62
2019-01-13T05:14:53.327Z,4.64
2019-01-13T05:17:21.297Z,4.58
2019-01-13T05:19:49.269Z,4.55
2019-01-13T05:22:16.894Z,4.66
2019-01-13T05:24:44.799Z,4.63
2019-01-13T05:27:12.775Z,4.73
2019-01-13T05:29:40.475Z,4.88
2019-01-13T05:32:08.169Z,4.85
2019-01-13T05:34:35.801Z,4.92
2019-01-13T05:37:03.422Z,4.92
2019-01-13T05:39:31.414Z,4.90
2019-01-13T05:41:59.369Z,4.93
2019-01-13T05:44:27.343Z,4.91
2019-01-13T05:46:55.291Z,4.81
2019-01-13T05:49:23.264Z,4.79
2019-01-13T05:51:50.882Z,4.73
2019-01-13T05:54:18.506Z,4.68
2019-01-13T05:56:46.454Z,4.64
2019-01-13T05:59:14.082Z,4.59
2019-01-13T06:01:48.956Z,4.53
2019-01-13T06:04:11.588Z,4.53
2019-01-13T06:06:39.217Z,4.61
2019-01-13T06:09:07.122Z,4.60
2019-01-13T06:11:35.096Z,4.61
2019-01-13T06:14:02.717Z,4.61
2019-01-13T06:16:30.623Z,4.66
2019-01-13T06:18:58.590Z,4.68
2019-01-13T06:21:26.209Z,4.70
2019-01-13T06:23:54.116Z,4.72
2019-01-13T06:26:22.085Z,4.70
2019-01-13T06:28:50.057Z,4.71
2019-01-13T06:31:18.025Z,4.67
2019-01-13T06:33:45.646Z,4.66
2019-01-13T06:36:13.256Z,4.66
2019-01-13T06:38:40.888Z,4.66
2019-01-13T06:41:08.779Z,4.63
2019-01-13T06:43:36.750Z,4.57
2019-01-13T06:46:04.368Z,4.52
2019-01-13T06:48:32.005Z,4.50
2019-01-13T06:50:59.619Z,4.49
2019-01-13T06:53:27.502Z,4.61
2019-01-13T06:55:55.130Z,4.63
2019-01-13T06:58:22.752Z,4.59
2019-01-13T07:00:50.694Z,4.62
2019-01-13T07:03:18.318Z,4.63
2019-01-13T07:05:46.242Z,4.67
2019-01-13T07:08:13.860Z,4.71
2019-01-13T07:10:41.756Z,4.80
2019-01-13T07:13:10.544Z,4.81
2019-01-13T07:15:38.231Z,4.75
2019-01-13T07:18:06.193Z,4.86
2019-01-13T07:20:34.141Z,4.85
2019-01-13T07:23:02.120Z,4.86
2019-01-13T07:25:30.080Z,4.89
2019-01-13T07:27:58.049Z,4.91
2019-01-13T07:30:26.023Z,4.95
2019-01-13T07:32:53.641Z,4.99
2019-01-13T07:35:21.553Z,4.98
2019-01-13T07:37:49.169Z,4.99
2019-01-13T07:40:16.800Z,5.01
2019-01-13T07:42:44.742Z,5.12
2019-01-13T07:45:12.370Z,5.06
2019-01-13T07:47:40.275Z,5.14
2019-01-13T07:50:08.245Z,5.20
2019-01-13T07:52:36.228Z,5.31
2019-01-13T07:55:04.184Z,5.29
2019-01-13T07:57:32.157Z,5.31
2019-01-13T07:59:59.784Z,5.26
2019-01-13T08:02:27.683Z,5.24
2019-01-13T08:04:55.386Z,5.20
2019-01-13T08:07:23.010Z,5.24
2019-01-13T08:09:50.977Z,5.30
2019-01-13T08:12:18.840Z,5.36
2019-01-13T08:14:46.466Z,5.32
2019-01-13T08:17:14.374Z,5.31
2019-01-13T08:19:42.001Z,5.26
2019-01-13T08:22:10.217Z,5.28
2019-01-13T08:24:37.844Z,5.35
2019-01-13T08:27:05.740Z,5.43
2019-01-13T08:29:33.357Z,5.48
2019-01-13T08:32:01.269Z,5.50
2019-01-13T08:34:28.890Z,5.59
2019-01-13T08:36:56.516Z,5.62
2019-01-13T08:39:24.457Z,5.60
2019-01-13T08:41:52.162Z,5.58
2019-01-13T08:44:19.775Z,5.57
2019-01-13T08:46:47.756Z,5.61
2019-01-13T08:49:15.389Z,5.64
2019-01-13T08:51:43.288Z,5.59
2019-01-13T08:54:11.254Z,5.67
2019-01-13T08:56:38.902Z,5.71
2019-01-13T08:59:06.887Z,5.62
2019-01-13T09:01:34.859Z,5.71
2019-01-13T09:04:02.477Z,5.69
2019-01-13T09:06:30.395Z,5.70
2019-01-13T09:08:58.357Z,5.74
2019-01-13T09:11:25.996Z,5.75
2019-01-13T09:13:53.891Z,5.75
2019-01-13T09:16:21.865Z,5.73
2019-01-13T09:18:49.824Z,5.75
2019-01-13T09:21:17.645Z,5.77
2019-01-13T09:23:45.669Z,5.77
2019-01-13T09:26:13.361Z,5.66
2019-01-13T09:28:40.977Z,5.59
2019-01-13T09:31:08.853Z,5.61
2019-01-13T09:33:36.823Z,5.60
2019-01-13T09:36:04.440Z,5.72
2019-01-13T09:38:32.362Z,5.72
2019-01-13T09:41:00.329Z,5.77
2019-01-13T09:43:28.307Z,5.76
2019-01-13T09:45:56.367Z,5.74
2019-01-13T09:48:24.336Z,5.83
2019-01-13T09:50:52.302Z,5.83
2019-01-13T09:53:19.924Z,5.89
2019-01-13T09:55:47.949Z,5.90
2019-01-13T09:58:15.906Z,5.91
2019-01-13T10:00:43.531Z,5.91
2019-01-13T10:03:11.448Z,5.99
2019-01-13T10:05:39.410Z,6.05
2019-01-13T10:08:07.273Z,6.12
2019-01-13T10:10:35.240Z,6.06
2019-01-13T10:13:03.111Z,6.09
2019-01-13T10:15:31.080Z,6.07
2019-01-13T10:17:59.084Z,6.07
2019-01-13T10:20:27.036Z,6.13
2019-01-13T10:22:54.987Z,6.15
2019-01-13T10:25:22.957Z,6.18
2019-01-13T10:27:50.927Z,6.20
2019-01-13T10:30:18.894Z,6.23
2019-01-13T10:32:47.799Z,6.23
2019-01-13T10:35:16.166Z,6.26
2019-01-13T10:37:43.790Z,6.29
2019-01-13T10:40:11.698Z,6.19
2019-01-13T10:42:39.677Z,6.24
2019-01-13T10:45:07.641Z,6.21
2019-01-13T10:47:35.601Z,6.21
2019-01-13T10:50:03.246Z,6.24
2019-01-13T10:52:31.252Z,6.14
2019-01-13T10:54:59.229Z,6.08
2019-01-13T10:57:27.180Z,5.98
2019-01-13T10:59:55.145Z,5.90
2019-01-13T11:02:23.121Z,5.80
2019-01-13T11:04:51.084Z,5.78
2019-01-13T11:07:19.053Z,5.74
2019-01-13T11:09:46.734Z,5.71
2019-01-13T11:12:14.358Z,5.71
2019-01-13T11:14:42.249Z,5.78
2019-01-13T11:17:10.217Z,5.77
2019-01-13T11:19:38.189Z,5.80
2019-01-13T11:22:05.806Z,5.80
2019-01-13T11:24:33.716Z,5.87
2019-01-13T11:27:01.341Z,5.92
2019-01-13T11:29:32.736Z,5.92
2019-01-13T11:31:58.560Z,5.99
2019-01-13T11:34:26.523Z,6.05
2019-01-13T11:36:54.484Z,6.06
2019-01-13T11:39:22.451Z,6.06
2019-01-13T11:41:50.423Z,6.12
2019-01-13T11:44:18.394Z,6.14
2019-01-13T11:46:46.360Z,6.15
2019-01-13T11:49:13.980Z,6.15
2019-01-13T11:51:41.917Z,6.12
2019-01-13T11:54:09.533Z,6.18
2019-01-13T11:56:37.151Z,6.18
2019-01-13T11:59:05.085Z,6.22
2019-01-13T12:01:33.053Z,6.23
2019-01-13T12:04:01.841Z,6.24
2019-01-13T12:06:29.546Z,6.21
2019-01-13T12:08:57.497Z,6.23
2019-01-13T12:11:25.449Z,6.24
2019-01-13T12:13:53.074Z,6.22
2019-01-13T12:16:20.979Z,6.17
2019-01-13T12:18:48.952Z,6.18
2019-01-13T12:21:16.571Z,6.05
2019-01-13T12:23:44.493Z,6.04
2019-01-13T12:26:12.119Z,5.91
2019-01-13T12:28:40.012Z,5.99
2019-01-13T12:31:07.623Z,5.89
2019-01-13T12:33:35.534Z,5.88
2019-01-13T12:36:03.505Z,5.78
2019-01-13T12:38:31.135Z,5.78
2019-01-13T12:41:00.183Z,5.73
2019-01-13T12:43:27.857Z,5.73
2019-01-13T12:45:55.797Z,5.72
2019-01-13T12:48:23.763Z,5.69
2019-01-13T12:50:51.449Z,5.76
2019-01-13T12:53:19.067Z,5.73
2019-01-13T12:55:46.688Z,5.77
2019-01-13T12:58:14.314Z,5.83
2019-01-13T13:00:42.276Z,5.86
2019-01-13T13:03:10.267Z,5.85
2019-01-13T13:05:38.223Z,5.73
2019-01-13T13:08:06.184Z,5.78
2019-01-13T13:10:33.794Z,5.79
2019-01-13T13:13:01.416Z,5.78
2019-01-13T13:15:29.030Z,5.96
2019-01-13T13:17:56.946Z,5.96
2019-01-13T13:20:24.628Z,6.02
2019-01-13T13:22:52.572Z,6.09
2019-01-13T13:25:20.557Z,6.12
2019-01-13T13:27:48.508Z,6.02
2019-01-13T13:30:16.125Z,6.00
2019-01-13T13:32:43.745Z,6.13
2019-01-13T13:35:11.373Z,6.15
2019-01-13T13:37:38.980Z,6.15
2019-01-13T13:40:06.599Z,6.16
2019-01-13T13:42:34.486Z,6.21
2019-01-13T13:45:02.456Z,6.22
2019-01-13T13:47:30.082Z,6.21
2019-01-13T13:49:57.985Z,6.23
2019-01-13T13:52:25.974Z,6.28
2019-01-13T13:54:53.923Z,6.36
2019-01-13T13:57:21.901Z,6.36
2019-01-13T13:59:49.760Z,6.28
2019-01-13T14:02:17.730Z,6.38
2019-01-13T14:04:45.352Z,6.41
2019-01-13T14:07:12.982Z,6.45
2019-01-13T14:09:40.930Z,6.43
2019-01-13T14:12:09.208Z,6.43
2019-01-13T14:14:37.167Z,6.42
2019-01-13T14:17:04.792Z,6.49
2019-01-13T14:19:32.412Z,6.53
2019-01-13T14:22:00.364Z,6.58
2019-01-13T14:24:27.978Z,6.52
2019-01-13T14:26:55.905Z,6.51
2019-01-13T14:29:23.541Z,6.57
2019-01-13T14:31:51.238Z,6.50
2019-01-13T14:34:19.207Z,6.62
2019-01-13T14:36:47.050Z,6.53
2019-01-13T14:39:14.675Z,6.58
2019-01-13T14:41:42.281Z,6.52
2019-01-13T14:44:09.918Z,6.59
2019-01-13T14:46:37.809Z,6.65
2019-01-13T14:49:05.445Z,6.60
2019-01-13T14:51:33.332Z,6.62
2019-01-13T14:54:01.301Z,6.61
2019-01-13T14:56:28.925Z,6.58
2019-01-13T14:58:56.550Z,6.57
2019-01-13T15:01:24.498Z,6.56
2019-01-13T15:03:52.460Z,6.61
2019-01-13T15:06:20.072Z,6.58
2019-01-13T15:08:47.696Z,6.49
2019-01-13T15:11:15.316Z,6.54
2019-01-13T15:13:42.943Z,6.52
2019-01-13T15:16:10.882Z,6.48
2019-01-13T15:18:38.860Z,6.48
2019-01-13T15:21:06.817Z,6.46
2019-01-13T15:23:34.444Z,6.39
2019-01-13T15:26:02.058Z,6.32
2019-01-13T15:28:30.012Z,6.43
2019-01-13T15:30:57.877Z,6.27
2019-01-13T15:33:25.851Z,6.21
2019-01-13T15:35:53.816Z,6.21
2019-01-13T15:38:21.687Z,6.22
2019-01-13T15:40:49.299Z,6.20
2019-01-13T15:43:16.922Z,6.17
2019-01-13T15:45:44.879Z,6.13
2019-01-13T15:48:12.844Z,6.08
2019-01-13T15:50:40.460Z,6.13
2019-01-13T15:53:08.375Z,6.13
2019-01-13T15:55:36.349Z,6.10
2019-01-13T15:58:04.333Z,6.04
2019-01-13T16:00:31.947Z,6.04
2019-01-13T16:02:59.866Z,6.09
2019-01-13T16:05:27.822Z,6.09
2019-01-13T16:07:55.786Z,6.14
2019-01-13T16:10:23.396Z,6.14
2019-01-13T16:12:51.315Z,6.11
2019-01-13T16:15:19.206Z,6.11
2019-01-13T16:17:46.825Z,6.05
2019-01-13T16:20:14.712Z,6.02
2019-01-13T16:22:42.684Z,6.05
2019-01-13T16:25:10.649Z,6.19
2019-01-13T16:27:38.259Z,6.18
2019-01-13T16:30:06.182Z,6.35
2019-01-13T16:32:33.864Z,6.39
2019-01-13T16:35:01.818Z,6.41
2019-01-13T16:37:29.431Z,6.42
2019-01-13T16:39:57.057Z,6.42
2019-01-13T16:42:25.007Z,6.49
2019-01-13T16:44:52.971Z,6.43
2019-01-13T16:47:20.590Z,6.45
2019-01-13T16:49:48.501Z,6.54
2019-01-13T16:52:16.110Z,6.54
2019-01-13T16:54:44.036Z,6.54
2019-01-13T16:57:11.648Z,6.54
2019-01-13T16:59:39.562Z,6.58
2019-01-13T17:02:07.445Z,6.58
2019-01-13T17:04:35.402Z,6.51
2019-01-13T17:07:03.017Z,6.51
2019-01-13T17:09:30.648Z,6.58
2019-01-13T17:11:58.600Z,6.65
2019-01-13T17:14:26.222Z,6.65
2019-01-13T17:16:54.083Z,6.59
2019-01-13T17:19:21.989Z,6.68
2019-01-13T17:21:49.958Z,6.77
2019-01-13T17:24:17.926Z,6.59
2019-01-13T17:26:45.537Z,6.59
2019-01-13T17:29:13.459Z,6.75
2019-01-13T17:31:41.442Z,6.60
2019-01-13T17:34:09.365Z,6.50
2019-01-13T17:36:37.266Z,6.44
2019-01-13T17:39:04.910Z,6.39
2019-01-13T17:41:32.825Z,6.47
2019-01-13T17:44:00.764Z,6.51
2019-01-13T17:46:28.377Z,6.39
2019-01-13T17:48:56.013Z,6.36
2019-01-13T17:51:23.976Z,6.37
2019-01-13T17:53:51.596Z,6.40
2019-01-13T17:56:19.218Z,6.40
2019-01-13T17:58:46.848Z,6.39
2019-01-13T18:01:14.466Z,6.39
2019-01-13T18:03:42.380Z,6.52
2019-01-13T18:06:09.993Z,6.49
2019-01-13T18:08:37.868Z,6.49
2019-01-13T18:11:05.505Z,6.56
2019-01-13T18:13:33.457Z,6.49
2019-01-13T18:16:01.396Z,6.51
2019-01-13T18:18:29.265Z,6.58
2019-01-13T18:20:56.884Z,6.59
2019-01-13T18:23:24.798Z,6.53
2019-01-13T18:25:52.765Z,6.67
2019-01-13T18:28:20.451Z,6.79
2019-01-13T18:30:48.150Z,6.84
2019-01-13T18:33:15.830Z,6.84
2019-01-13T18:35:43.725Z,6.74
2019-01-13T18:38:11.343Z,6.79
2019-01-13T18:40:39.250Z,6.79
2019-01-13T18:43:07.121Z,6.88
2019-01-13T18:45:35.089Z,6.92
2019-01-13T18:48:02.702Z,6.97
2019-01-13T18:50:30.620Z,6.97
2019-01-13T18:52:58.596Z,7.00
2019-01-13T18:55:26.214Z,7.15
2019-01-13T18:57:54.119Z,7.10
2019-01-13T19:00:22.084Z,7.16
2019-01-13T19:02:49.700Z,7.23
2019-01-13T19:05:17.618Z,7.23
2019-01-13T19:07:45.619Z,7.15
2019-01-13T19:10:13.249Z,7.19
2019-01-13T19:12:41.216Z,7.33
2019-01-13T19:15:08.839Z,7.24
2019-01-13T19:17:36.453Z,7.19
2019-01-13T19:20:04.068Z,7.14
2019-01-13T19:22:31.982Z,7.38
2019-01-13T19:24:59.942Z,7.31
2019-01-13T19:27:27.814Z,7.37
2019-01-13T19:29:55.782Z,7.37
2019-01-13T19:32:23.397Z,7.47
2019-01-13T19:34:51.015Z,7.30
2019-01-13T19:37:18.971Z,7.30
2019-01-13T19:39:46.941Z,7.48
2019-01-13T19:42:14.546Z,7.45
2019-01-13T19:44:42.163Z,7.45
2019-01-13T19:47:09.775Z,7.46
2019-01-13T19:49:37.390Z,7.75
2019-01-13T19:52:05.354Z,7.61
2019-01-13T19:54:32.988Z,7.58
2019-01-13T19:57:00.599Z,7.42
2019-01-13T19:59:28.205Z,7.52
2019-01-13T20:01:55.825Z,7.40
2019-01-13T20:04:23.678Z,7.35
2019-01-13T20:06:51.293Z,7.46
2019-01-13T20:09:18.919Z,7.53
2019-01-13T20:11:46.857Z,7.57
2019-01-13T20:14:14.465Z,7.47
2019-01-13T20:16:43.258Z,7.41
2019-01-13T20:19:10.880Z,7.23
2019-01-13T20:21:38.835Z,7.14
2019-01-13T20:24:06.449Z,6.99
2019-01-13T20:26:34.072Z,6.99
2019-01-13T20:29:01.676Z,7.06
2019-01-13T20:31:29.590Z,6.98
2019-01-13T20:33:57.560Z,6.96
2019-01-13T20:36:25.549Z,6.91
2019-01-13T20:38:53.169Z,6.80
2019-01-13T20:41:21.079Z,6.80
2019-01-13T20:43:48.685Z,6.75
2019-01-13T20:46:16.592Z,6.72
2019-01-13T20:48:45.569Z,6.73
2019-01-13T20:51:13.659Z,6.69
2019-01-13T20:53:41.626Z,6.79
2019-01-13T20:56:09.595Z,6.64
2019-01-13T20:58:37.567Z,6.59
2019-01-13T21:01:05.537Z,6.49
2019-01-13T21:03:33.504Z,6.52
2019-01-13T21:06:01.475Z,6.57
2019-01-13T21:08:29.160Z,6.48
2019-01-13T21:10:57.119Z,6.50
2019-01-13T21:13:25.075Z,6.53
2019-01-13T21:15:53.045Z,6.56
2019-01-13T21:18:21.015Z,6.47
2019-01-13T21:20:48.634Z,6.47
2019-01-13T21:23:16.541Z,6.50
2019-01-13T21:25:44.521Z,6.44
2019-01-13T21:28:12.140Z,6.46
2019-01-13T21:30:40.042Z,6.33
2019-01-13T21:33:08.013Z,6.33
2019-01-13T21:35:35.631Z,6.36
2019-01-13T21:38:03.556Z,6.35
2019-01-13T21:40:31.515Z,6.25
2019-01-13T21:42:59.376Z,6.23
2019-01-13T22:00:02.781Z,6.23
2019-01-13T22:02:30.745Z,6.30
2019-01-13T22:04:58.717Z,6.24
2019-01-13T22:07:26.688Z,6.19
2019-01-13T22:09:54.655Z,6.04
2019-01-13T22:12:22.627Z,6.04
2019-01-13T22:14:50.594Z,6.06
2019-01-13T22:17:18.559Z,6.03
2019-01-13T22:19:46.432Z,6.06
2019-01-13T22:22:14.402Z,6.06
2019-01-13T22:24:42.370Z,6.01
2019-01-13T22:27:10.338Z,6.00
2019-01-13T22:29:38.311Z,6.08
2019-01-13T22:32:05.923Z,6.08
2019-01-13T22:34:33.839Z,6.08
2019-01-13T22:37:01.806Z,6.16
2019-01-13T22:39:29.676Z,6.29
2019-01-13T22:41:57.648Z,6.34
2019-01-13T22:44:25.268Z,6.36
2019-01-13T22:46:53.177Z,6.40
2019-01-13T22:49:21.040Z,6.47
2019-01-13T22:51:49.038Z,6.47
2019-01-13T22:54:16.981Z,6.47
2019-01-13T22:56:44.952Z,6.52
2019-01-13T22:59:12.565Z,6.52
2019-01-13T23:01:42.053Z,6.46
2019-01-13T23:04:09.747Z,6.46
2019-01-13T23:06:37.371Z,6.49
2019-01-13T23:09:05.311Z,6.37
2019-01-13T23:11:33.292Z,6.39
2019-01-13T23:14:01.150Z,6.44
2019-01-13T23:16:29.118Z,6.42
2019-01-13T23:18:56.984Z,6.42
2019-01-13T23:21:24.606Z,6.55
2019-01-13T23:23:52.515Z,6.52
2019-01-13T23:26:20.487Z,6.57
2019-01-13T23:28:48.356Z,6.59
2019-01-13T23:31:15.989Z,6.60
2019-01-13T23:33:43.880Z,6.54
2019-01-13T23:36:11.853Z,6.52
2019-01-13T23:38:39.838Z,6.57
2019-01-13T23:41:07.443Z,6.35
2019-01-13T23:43:35.349Z,6.35
2019-01-13T23:46:03.316Z,6.16
2019-01-13T23:48:30.959Z,6.16
2019-01-13T23:50:58.870Z,6.16
2019-01-13T23:53:26.819Z,6.15
2019-01-13T23:55:54.435Z,6.12
2019-01-13T23:58:22.053Z,6.03
